Time;durP1;ratioP1;P1;durP2;ratioP2;P2;SDS_P1;SDS_P2;PMS_P1;PMS_P2;Temp;Humidity;BMP_temperature;BMP_pressure;BME280_temperature;BME280_humidity;BME280_pressure;Samples;Min_cycle;Max_cycle;Signal;HPM_P1;HPM_P2
2022/01/03 00:05:20;;;;;;;5.33;3.42;;;;;;;14.34;59.61;98876.06;1773476;109;25858;-92
2022/01/03 00:13:03;;;;;;;5.77;3.20;;;;;;;14.34;59.33;98876.95;1769010;109;25865;-89
2022/01/03 00:16:48;;;;;;;3.85;3.25;;;;;;;14.34;59.38;98872.13;1788940;109;25807;-90
2022/01/03 00:45:38;;;;;;;5.67;3.15;;;;;;;14.24;59.17;98870.54;1713662;113;25936;-89
2022/01/03 00:49:20;;;;;;;4.00;3.02;;;;;;;14.22;59.04;98866.65;1717361;113;26000;-87
2022/01/03 00:53:15;;;;;;;3.42;2.83;;;;;;;14.21;58.99;98880.66;1718168;113;25850;-90
2022/01/03 00:57:20;;;;;;;;;;;;;;;;;;;;;
2022/01/03 01:00:56;;;;;;;4.35;2.60;;;;;;;14.22;58.88;98866.65;1732097;112;26358;-93
2022/01/03 01:04:44;;;;;;;7.65;3.05;;;;;;;14.22;58.85;98848.75;1757481;110;25876;-88
2022/01/03 01:08:45;;;;;;;;;;;;;;;;;;;;;
2022/01/03 01:12:41;;;;;;;;;;;;;;;;;;;;;
2022/01/03 01:16:37;;;;;;;5.87;2.62;;;;;;;14.23;58.70;98853.09;1817040;104;26629;-88
2022/01/03 01:20:27;;;;;;;4.37;2.50;;;;;;;14.11;58.77;98827.52;1859011;104;25864;-92
2022/01/03 01:24:24;;;;;;;4.15;2.25;;;;;;;14.16;58.62;98835.29;1860815;106;25763;-89
2022/01/03 01:28:24;;;;;;;5.55;2.17;;;;;;;14.17;58.53;98838.32;1826810;106;25392;-93
2022/01/03 01:32:26;;;;;;;;;;;;;;;;;;;;;
2022/01/03 01:36:30;;;;;;;3.95;3.25;;;;;;;14.19;58.57;98823.45;1860595;102;25908;-95
2022/01/03 01:44:48;;;;;;;3.52;2.25;;;;;;;14.16;58.39;98824.36;1826266;106;25842;-91
2022/01/03 01:49:03;;;;;;;4.33;2.50;;;;;;;14.16;58.37;98837.45;1829520;105;25845;-91
2022/01/03 01:53:48;;;;;;;;;;;;;;;;;;;;;
2022/01/03 01:58:10;;;;;;;3.55;2.10;;;;;;;13.98;58.25;98823.34;1871643;101;26208;-91
2022/01/03 02:02:08;;;;;;;7.00;2.15;;;;;;;14.13;58.18;98842.75;1821458;104;25961;-89
2022/01/03 02:05:59;;;;;;;5.28;2.17;;;;;;;14.13;58.26;98844.50;1834135;103;26177;-89
2022/01/03 02:10:23;;;;;;;;;;;;;;;;;;;;;
2022/01/03 02:14:16;;;;;;;;;;;;;;;;;;;;;
2022/01/03 02:21:58;;;;;;;3.93;1.80;;;;;;;14.12;58.13;98832.30;2261525;85;27533;-87
2022/01/03 02:25:37;;;;;;;4.53;1.95;;;;;;;14.12;58.11;98829.23;2253943;86;26027;-92
2022/01/03 02:33:50;;;;;;;2.70;1.75;;;;;;;14.12;58.06;98815.27;2159887;91;26677;-91
2022/01/03 02:42:19;;;;;;;2.08;1.50;;;;;;;13.93;58.23;98806.81;2047433;94;25901;-94
2022/01/03 02:45:55;;;;;;;2.25;1.45;;;;;;;13.93;58.23;98806.81;2045416;94;25655;-92
2022/01/03 02:50:11;;;;;;;;;;;;;;;;;;;;;
2022/01/03 03:02:27;;;;;;;5.00;2.42;;;;;;;14.02;57.95;98809.30;1915472;101;26207;-88
2022/01/03 03:06:30;;;;;;;2.62;1.65;;;;;;;14.00;58.01;98801.03;1884784;103;25737;-90
2022/01/03 03:10:14;;;;;;;2.35;1.87;;;;;;;13.83;58.09;98777.72;1882711;103;25851;-89
2022/01/03 03:14:09;;;;;;;3.50;1.32;;;;;;;13.83;58.09;98777.72;1909864;101;25810;-88
2022/01/03 03:18:29;;;;;;;1.37;1.27;;;;;;;13.91;58.02;98796.37;1966017;97;26042;-90
2022/01/03 03:26:38;;;;;;;;;;;;;;;;;;;;;
2022/01/03 03:30:24;;;;;;;2.87;1.92;;;;;;;13.84;58.16;98783.41;1913070;98;25911;-90
2022/01/03 03:34:26;;;;;;;;;;;;;;;;;;;;;
2022/01/03 03:38:28;;;;;;;2.27;1.72;;;;;;;13.83;57.99;98786.89;1956806;98;26151;-89
2022/01/03 03:42:41;;;;;;;;;;;;;;;;;;;;;
2022/01/03 04:00:20;;;;;;;;;;;;;;;;;;;;;
2022/01/03 04:03:58;;;;;;;4.20;1.60;;;;;;;13.67;58.13;98791.52;1758184;111;25724;-89
2022/01/03 04:07:44;;;;;;;;;;;;;;;;;;;;;
2022/01/03 04:24:41;;;;;;;2.45;1.17;;;;;;;13.55;58.21;98779.89;1734333;112;26295;-89
2022/01/03 04:29:10;;;;;;;2.52;1.30;;;;;;;13.52;58.25;98789.09;1722585;113;26225;-90
2022/01/03 04:33:31;;;;;;;1.62;1.22;;;;;;;13.46;58.27;98774.33;1775311;109;25865;-90
2022/01/03 04:37:14;;;;;;;;;;;;;;;;;;;;;
2022/01/03 04:41:29;;;;;;;;;;;;;;;13.44;58.38;98772.19;1763792;110;26274;-89
2022/01/03 04:53:40;;;;;;;2.40;1.30;;;;;;;13.36;58.49;98774.89;1785828;105;25537;-91
2022/01/03 04:57:50;;;;;;;1.98;1.40;;;;;;;13.34;58.51;98772.75;1807340;107;26418;-89
2022/01/03 05:01:34;;;;;;;3.00;1.72;;;;;;;13.33;58.48;98787.16;1811250;104;25814;-88
2022/01/03 05:05:15;;;;;;;4.10;2.60;;;;;;;13.32;58.52;98782.81;1825501;104;25843;-87
2022/01/03 05:08:50;;;;;;;;;;;;;;;;;;;;;
2022/01/03 05:12:33;;;;;;;5.60;2.00;;;;;;;13.31;58.54;98787.63;1852098;105;26132;-87
2022/01/03 05:16:57;;;;;;;;;;;;;;;;;;;;;
2022/01/03 05:21:00;;;;;;;;;;;;;;;;;;;;;
2022/01/03 05:24:43;;;;;;;3.85;1.98;;;;;;;13.24;58.59;98798.63;1981559;96;25932;-88
2022/01/03 05:35:50;;;;;;;4.05;2.33;;;;;;;13.21;58.67;98794.70;1802432;108;25848;-86
2022/01/03 05:39:18;;;;;;;3.35;1.80;;;;;;;13.20;58.70;98796.45;1791272;109;25883;-89
2022/01/03 05:47:51;;;;;;;1.90;1.57;;;;;;;13.18;58.70;98796.91;1769211;109;25861;-90
2022/01/03 06:11:51;;;;;;;;;;;;;;;;;;;;;
2022/01/03 06:19:14;;;;;;;2.83;1.77;;;;;;;12.91;58.88;98785.02;1765903;110;25734;-93
2022/01/03 06:22:44;;;;;;;2.30;1.42;;;;;;;12.91;58.88;98785.02;1771127;105;25773;-89
2022/01/03 06:31:12;;;;;;;;;;;;;;;;;;;;;
2022/01/03 06:34:52;;;;;;;2.22;1.80;;;;;;;13.04;59.00;98817.59;1819345;106;25923;-89
2022/01/03 06:38:28;;;;;;;3.17;1.57;;;;;;;13.04;58.97;98830.22;1818657;106;26186;-90
2022/01/03 06:42:34;;;;;;;2.95;1.90;;;;;;;13.04;58.98;98831.97;1831507;105;26359;-93
2022/01/03 06:54:50;;;;;;;1.85;1.75;;;;;;;13.08;58.95;98837.14;1815525;107;26233;-91
2022/01/03 06:58:50;;;;;;;;;;;;;;;;;;;;;
2022/01/03 07:02:42;;;;;;;2.80;1.90;;;;;;;13.10;58.95;98826.23;1853883;104;26205;-89
2022/01/03 07:06:38;;;;;;;3.55;2.25;;;;;;;13.13;58.93;98824.03;1878897;104;26668;-88
2022/01/03 07:10:32;;;;;;;1.95;1.70;;;;;;;13.14;58.89;98824.45;1822036;107;26298;-89
2022/01/03 07:21:02;;;;;;;2.15;1.95;;;;;;;13.15;58.88;98817.87;1811139;108;26271;-90
2022/01/03 07:24:42;;;;;;;1.95;1.75;;;;;;;13.18;58.85;98831.37;1765681;111;25460;-91
2022/01/03 07:28:22;;;;;;;3.45;1.40;;;;;;;13.21;58.86;98843.11;1754692;111;26209;-88
2022/01/03 07:32:20;;;;;;;5.17;2.17;;;;;;;13.25;58.83;98840.91;1721885;113;25970;-91
2022/01/03 07:36:04;;;;;;;8.78;2.58;;;;;;;13.29;58.80;98846.97;1738099;113;25928;-90
2022/01/03 07:39:45;;;;;;;2.92;1.87;;;;;;;13.36;58.75;98842.94;1731829;112;25834;-90
2022/01/03 07:43:39;;;;;;;2.67;1.72;;;;;;;13.45;58.67;98843.28;1759646;110;25951;-88
2022/01/03 07:47:19;;;;;;;2.25;1.60;;;;;;;14.31;58.27;98838.09;1758145;112;25867;-89
2022/01/03 07:50:58;;;;;;;2.00;1.70;;;;;;;14.31;58.27;98838.09;1787976;108;26552;-89
2022/01/03 07:55:22;;;;;;;4.33;2.12;;;;;;;14.38;57.46;98834.06;1813345;107;25949;-87
2022/01/03 08:03:16;;;;;;;3.37;2.12;;;;;;;14.39;57.21;98832.30;1796551;108;25958;-90
2022/01/03 08:11:34;;;;;;;;;;;;;;;;;;;;;
2022/01/03 08:18:28;;;;;;;1.75;1.60;;;;;;;14.27;57.10;98830.73;1690800;115;25829;-91
2022/01/03 08:22:12;;;;;;;2.98;1.87;;;;;;;14.21;57.17;98822.10;1693255;115;25978;-90
2022/01/03 08:25:57;;;;;;;3.87;2.55;;;;;;;14.16;57.22;98828.73;1677481;114;26314;-91
2022/01/03 08:33:37;;;;;;;5.67;2.25;;;;;;;14.09;57.37;98824.03;1733932;113;25780;-89
2022/01/03 08:48:45;;;;;;;5.45;3.45;;;;;;;13.99;57.53;98822.89;1738425;111;26163;-90
2022/01/03 08:53:17;;;;;;;7.00;4.25;;;;;;;13.96;57.63;98828.18;1760262;110;25806;-91
2022/01/03 08:56:50;;;;;;;4.67;2.98;;;;;;;13.94;57.65;98829.08;1775893;107;26156;-90
2022/01/03 09:00:39;;;;;;;3.65;2.90;;;;;;;13.95;57.71;98828.63;1787937;106;25897;-88
2022/01/03 09:04:25;;;;;;;6.20;3.27;;;;;;;13.92;57.76;98829.53;1763166;109;25915;-90
2022/01/03 09:08:25;;;;;;;7.08;3.60;;;;;;;13.91;57.80;98831.74;1717103;113;25966;-89
2022/01/03 09:16:25;;;;;;;5.80;3.33;;;;;;;13.88;57.91;98837.47;1827008;108;25882;-89
2022/01/03 09:20:05;;;;;;;3.72;3.42;;;;;;;13.86;57.97;98836.16;1882402;102;25996;-88
2022/01/03 09:32:10;;;;;;;5.75;4.33;;;;;;;13.85;58.25;98834.44;1856224;104;26154;-84
2022/01/03 09:39:36;;;;;;;4.42;3.98;;;;;;;13.88;58.12;98834.41;1756655;109;25965;-89
2022/01/03 09:43:09;;;;;;;5.35;3.47;;;;;;;13.90;58.14;98833.05;1777099;106;26517;-87
2022/01/03 09:46:55;;;;;;;5.42;3.62;;;;;;;13.88;58.17;98825.23;1812425;107;26173;-91
2022/01/03 09:50:40;;;;;;;6.22;3.90;;;;;;;13.90;58.17;98821.27;1810305;107;26876;-90
2022/01/03 09:54:26;;;;;;;4.17;3.75;;;;;;;13.89;58.19;98827.41;1829932;106;26096;-91
2022/01/03 10:01:53;;;;;;;;;;;;;;;;;;;;;
2022/01/03 10:05:24;;;;;;;5.72;3.90;;;;;;;13.86;58.30;98824.38;1766963;111;26205;-90
2022/01/03 10:08:55;;;;;;;7.37;3.80;;;;;;;13.88;58.31;98816.52;1721385;113;26041;-88
2022/01/03 10:12:25;;;;;;;4.85;3.80;;;;;;;13.87;58.36;98820.00;1719623;112;26063;-90
2022/01/03 10:16:10;;;;;;;4.10;3.60;;;;;;;13.87;58.36;98822.20;1716131;114;26126;-89
2022/01/03 10:19:56;;;;;;;3.92;3.42;;;;;;;13.86;58.39;98821.76;1718309;114;25844;-89
2022/01/03 10:23:38;;;;;;;4.60;3.62;;;;;;;13.87;58.41;98816.07;1708759;114;25808;-90
2022/01/03 10:27:16;;;;;;;4.67;3.60;;;;;;;13.86;58.43;98811.73;1704059;114;25938;-88
2022/01/03 10:31:11;;;;;;;4.10;3.70;;;;;;;13.84;58.48;98811.77;1691689;114;25866;-88
2022/01/03 10:34:44;;;;;;;3.47;3.17;;;;;;;13.83;58.52;98811.77;1741304;109;25876;-88
2022/01/03 10:38:53;;;;;;;3.58;3.27;;;;;;;13.82;58.55;98815.29;1812645;108;26082;-90
2022/01/03 10:42:36;;;;;;;3.00;2.65;;;;;;;13.83;58.57;98813.94;1796346;107;26072;-88
2022/01/03 10:47:18;;;;;;;;;;;;;;;;;;;;;
2022/01/03 10:51:18;;;;;;;;;;;;;;;;;;;;;
2022/01/03 10:56:12;;;;;;;3.37;2.98;;;;;;;13.88;58.61;98823.06;1682646;114;33600;-89
2022/01/03 10:59:52;;;;;;;3.25;2.95;;;;;;;13.91;58.62;98816.47;1687320;114;25845;-89
2022/01/03 11:03:46;;;;;;;3.65;2.80;;;;;;;13.90;58.61;98811.68;1740838;111;26073;-92
2022/01/03 11:11:09;;;;;;;3.17;2.87;;;;;;;13.94;58.63;98815.98;1781670;107;25835;-86
2022/01/03 11:14:39;;;;;;;2.85;2.37;;;;;;;13.94;58.64;98811.19;1763340;110;25905;-87
2022/01/03 11:18:18;;;;;;;3.00;2.58;;;;;;;13.84;58.60;98786.88;1752385;111;25791;-87
2022/01/03 11:26:20;;;;;;;3.25;2.50;;;;;;;13.87;58.63;98780.70;1807101;106;25900;-88
2022/01/03 11:29:53;;;;;;;2.80;2.50;;;;;;;14.03;58.46;98803.61;1800333;108;25844;-91
2022/01/03 11:37:48;;;;;;;3.17;2.27;;;;;;;14.08;58.56;98801.35;1809138;108;25811;-90
2022/01/03 11:41:22;;;;;;;4.50;1.85;;;;;;;14.09;58.51;98784.73;1821478;106;25969;-86
2022/01/03 11:44:58;;;;;;;2.77;1.57;;;;;;;13.93;58.24;98790.65;1805292;108;25961;-88
2022/01/03 11:48:19;;;;;;;2.72;1.87;;;;;;;13.93;58.24;98790.65;1821983;106;25858;-87
2022/01/03 11:51:49;;;;;;;3.72;1.60;;;;;;;13.95;58.32;98788.02;1925795;102;25818;-88
2022/01/03 11:55:13;;;;;;;1.77;1.57;;;;;;;14.06;58.87;98789.16;1925429;101;25862;-87
2022/01/03 12:06:28;;;;;;;3.17;1.70;;;;;;;14.20;59.70;98788.93;1847800;104;25745;-87
2022/01/03 12:10:23;;;;;;;2.30;1.62;;;;;;;14.17;60.40;98764.94;1850418;106;25801;-91
2022/01/03 12:14:06;;;;;;;3.80;1.65;;;;;;;14.38;60.73;98786.02;1849282;105;26199;-90
2022/01/03 12:17:48;;;;;;;2.45;1.52;;;;;;;14.43;60.99;98789.41;1829756;105;25950;-89
2022/01/03 12:21:35;;;;;;;1.75;1.40;;;;;;;14.46;60.83;98786.73;1926211;99;26413;-88
2022/01/03 12:25:10;;;;;;;5.35;2.90;;;;;;;14.52;61.53;98796.30;1988719;99;25973;-82
2022/01/03 12:28:51;;;;;;;4.90;2.87;;;;;;;14.60;61.28;98795.70;1989844;98;25945;-80
2022/01/03 12:32:49;;;;;;;5.70;2.70;;;;;;;14.37;60.08;98802.16;2022333;96;25774;-83
2022/01/03 12:36:24;;;;;;;2.92;2.30;;;;;;;14.07;59.78;98807.91;1950607;101;25754;-81
2022/01/03 12:40:36;;;;;;;3.00;2.10;;;;;;;13.86;59.83;98808.66;1939133;98;26032;-82
2022/01/03 12:45:03;;;;;;;5.53;2.80;;;;;;;13.69;59.98;98816.76;1875239;102;26012;-83
2022/01/03 12:48:43;;;;;;;3.35;2.50;;;;;;;13.63;59.94;98813.36;1867185;105;25917;-82
2022/01/03 12:52:19;;;;;;;6.00;3.05;;;;;;;13.57;59.83;98814.33;1776433;109;26072;-82
2022/01/03 12:59:50;;;;;;;3.37;2.92;;;;;;;13.25;60.04;98835.67;1750613;111;25881;-82
2022/01/03 13:03:52;;;;;;;;;;;;;;;;;;;;;
2022/01/03 13:12:23;;;;;;;2.65;2.17;;;;;;;13.10;60.75;98845.85;1726566;113;26099;-88
2022/01/03 13:16:14;;;;;;;3.08;2.40;;;;;;;13.25;60.76;98845.28;1714327;113;25951;-88
2022/01/03 13:32:06;;;;;;;2.08;1.85;;;;;;;13.79;61.72;98876.88;1724351;113;26651;-88
2022/01/03 13:35:54;;;;;;;2.83;1.42;;;;;;;13.99;62.16;98881.84;1734744;110;26111;-89
2022/01/03 13:39:36;;;;;;;2.77;1.57;;;;;;;14.08;62.16;98888.27;1735452;112;25947;-86
2022/01/03 13:43:13;;;;;;;1.95;1.60;;;;;;;14.13;62.10;98895.61;1740526;112;25783;-86
2022/01/03 13:50:39;;;;;;;3.90;1.90;;;;;;;14.23;61.99;98899.82;1771315;110;25815;-87
2022/01/03 13:54:45;;;;;;;2.67;1.90;;;;;;;14.33;62.22;98913.21;1786264;108;26182;-88
2022/01/03 13:58:20;;;;;;;4.22;2.10;;;;;;;14.33;62.22;98913.21;1763106;110;25846;-87
2022/01/03 14:02:01;;;;;;;3.30;1.85;;;;;;;14.37;62.11;98920.13;1764735;110;26109;-88
2022/01/03 14:05:47;;;;;;;2.62;2.10;;;;;;;14.40;62.08;98921.84;1765284;111;45575;-87
2022/01/03 14:13:27;;;;;;;3.85;2.17;;;;;;;14.48;61.91;98930.90;;;;
2022/01/03 14:17:28;;;;;;;;;;;;;;;;;;;;;
2022/01/03 14:21:44;;;;;;;;;;;;;;;;;;;;;
2022/01/03 14:25:42;;;;;;;;;;;;;;;;;;;;;
2022/01/03 14:29:38;;;;;;;;;;;;;;;;;;;;;
2022/01/03 14:33:37;;;;;;;;;;;;;;;;;;;;;
2022/01/03 14:37:16;;;;;;;2.80;2.50;;;;;;;14.26;61.62;98965.31;1689942;113;25699;-89
2022/01/03 14:46:44;;;;;;;;;;;;;;;14.22;61.39;98963.63;1718311;112;26803;-90
2022/01/03 14:50:28;;;;;;;5.22;2.22;;;;;;;14.18;61.47;98975.91;1733609;110;25836;-91
2022/01/03 14:54:15;;;;;;;2.60;2.40;;;;;;;14.09;61.19;98954.19;1763859;111;25834;-88
2022/01/03 14:58:04;;;;;;;4.35;2.22;;;;;;;14.18;61.46;98973.73;1725336;112;25991;-87
2022/01/03 15:02:04;;;;;;;;;;;;;;;;;;;;;
2022/01/03 15:05:55;;;;;;;;;;;;;;;;;;;;;
2022/01/03 15:09:22;;;;;;;2.87;2.15;;;;;;;14.15;61.31;98979.87;1762078;108;26024;-87
2022/01/03 15:13:38;;;;;;;3.87;2.77;;;;;;;14.15;61.08;98992.98;1765818;110;25861;-90
2022/01/03 15:26:19;;;;;;;;;;;;;;;;;;;;;
2022/01/03 15:43:26;;;;;;;3.00;2.00;;;;;;;14.09;61.95;98989.57;1710326;113;25968;-87
2022/01/03 15:47:04;;;;;;;3.17;2.45;;;;;;;14.28;62.67;99015.11;1715974;113;25995;-85
2022/01/03 15:50:37;;;;;;;2.85;2.02;;;;;;;14.30;62.69;99022.48;1713332;113;26038;-87
2022/01/03 15:54:24;;;;;;;2.50;1.90;;;;;;;14.32;62.74;99015.48;1707131;115;25926;-88
2022/01/03 15:58:12;;;;;;;2.65;2.12;;;;;;;14.32;62.65;99016.34;1734914;112;26045;-89
2022/01/03 16:05:45;;;;;;;1.80;1.60;;;;;;;14.35;62.56;99032.48;1805709;107;26058;-90
2022/01/03 16:09:43;;;;;;;2.80;2.05;;;;;;;14.35;62.56;99032.48;1815510;106;25920;-90
2022/01/03 16:13:56;;;;;;;2.85;1.90;;;;;;;14.35;62.30;99042.52;1818381;108;26011;-89
2022/01/03 16:17:27;;;;;;;2.75;2.33;;;;;;;14.35;62.17;99042.52;1843241;104;25943;-88
2022/01/03 16:21:14;;;;;;;;;;;;;;;;;;;;;
2022/01/03 16:25:04;;;;;;;3.37;2.40;;;;;;;14.30;61.70;99049.56;1894065;103;26582;-88
2022/01/03 16:28:54;;;;;;;3.20;2.43;;;;;;;14.32;61.61;99047.80;1842376;106;26026;-86
2022/01/03 16:33:10;;;;;;;4.08;3.45;;;;;;;14.33;61.58;99039.49;1868862;104;26269;-91
2022/01/03 16:36:59;;;;;;;3.52;3.17;;;;;;;14.28;61.64;99047.42;1877423;103;25650;-86
2022/01/03 16:40:43;;;;;;;4.08;2.80;;;;;;;14.19;61.67;99047.53;1897999;101;25652;-89
2022/01/03 16:44:16;;;;;;;;;;;;;;;;;;;;;
2022/01/03 16:47:54;;;;;;;4.15;2.87;;;;;;;14.10;61.70;99049.81;1887835;102;26599;-85
2022/01/03 16:52:02;;;;;;;3.90;3.42;;;;;;;14.07;61.71;99055.12;1899090;103;26174;-92
2022/01/03 16:59:34;;;;;;;3.70;3.27;;;;;;;14.01;61.74;99049.08;1899551;103;25832;-93
2022/01/03 17:03:03;;;;;;;6.80;3.58;;;;;;;13.84;61.72;99009.53;1906145;102;25856;-85
2022/01/03 17:11:02;;;;;;;3.37;2.80;;;;;;;13.86;61.78;99037.87;1938368;101;25468;-88
2022/01/03 17:14:38;;;;;;;3.60;2.77;;;;;;;13.83;61.63;99040.52;1937229;101;25680;-91
2022/01/03 17:18:52;;;;;;;5.35;2.50;;;;;;;13.83;61.63;99040.52;1876309;105;25839;-94
2022/01/03 17:22:14;;;;;;;3.15;2.60;;;;;;;13.78;61.65;99037.55;1866795;104;25830;-89
2022/01/03 17:26:00;;;;;;;3.40;2.47;;;;;;;13.75;61.60;99034.95;1890942;103;25938;-91
2022/01/03 17:29:26;;;;;;;2.70;2.45;;;;;;;13.73;61.62;99028.85;1887651;102;25818;-89
2022/01/03 17:33:04;;;;;;;4.70;2.80;;;;;;;13.70;61.62;99035.88;1873934;104;25856;-88
2022/01/03 17:36:53;;;;;;;3.08;2.33;;;;;;;13.68;61.62;99038.08;1871186;105;25458;-92
2022/01/03 17:40:17;;;;;;;3.35;2.55;;;;;;;13.66;61.59;99042.45;1792270;108;25986;-87
2022/01/03 17:43:51;;;;;;;4.30;2.62;;;;;;;13.64;61.56;99040.31;1776252;106;25929;-88
2022/01/03 17:47:31;;;;;;;3.72;3.00;;;;;;;13.60;61.58;99036.86;1705998;115;26016;-91
2022/01/03 17:51:04;;;;;;;5.20;3.45;;;;;;;13.59;61.84;99031.17;1698972;115;25848;-85
2022/01/03 17:54:36;;;;;;;3.60;2.80;;;;;;;13.59;61.84;99031.17;1634078;119;25932;-87
2022/01/03 17:58:02;;;;;;;3.72;3.10;;;;;;;13.58;61.63;99040.37;1642049;116;25990;-86
2022/01/03 18:01:29;;;;;;;;;;;;;;;13.57;61.66;99042.13;1677913;116;26483;-86
2022/01/03 18:05:09;;;;;;;4.45;2.80;;;;;;;13.56;61.68;99046.05;1682024;116;25897;-88
2022/01/03 18:08:39;;;;;;;3.92;3.30;;;;;;;13.55;61.72;99043.88;1678993;115;26142;-89
2022/01/03 18:12:58;;;;;;;3.72;2.60;;;;;;;13.54;61.72;99038.22;1679927;115;25847;-90
2022/01/03 18:16:44;;;;;;;5.20;3.65;;;;;;;13.55;61.75;99043.02;1673360;117;25947;-88
2022/01/03 18:20:17;;;;;;;4.37;3.22;;;;;;;13.54;61.78;99029.50;1710778;115;25939;-89
2022/01/03 18:23:54;;;;;;;4.28;3.12;;;;;;;13.54;61.80;99023.83;1691060;116;25941;-86
2022/01/03 18:27:58;;;;;;;4.08;3.55;;;;;;;13.54;61.80;99023.83;1727602;113;25741;-85
2022/01/03 18:31:33;;;;;;;3.77;2.90;;;;;;;13.53;61.75;99029.06;1723280;112;26051;-89
2022/01/03 18:34:57;;;;;;;4.42;3.62;;;;;;;13.53;61.74;99026.44;1725924;113;25859;-89
2022/01/03 18:38:23;;;;;;;4.10;3.15;;;;;;;13.40;61.71;99008.70;1774170;109;26004;-86
2022/01/03 18:41:49;;;;;;;4.65;3.72;;;;;;;13.51;61.71;99037.39;1831661;106;25772;-87
2022/01/03 18:45:40;;;;;;;4.65;3.27;;;;;;;13.49;61.69;99037.39;1887201;103;25895;-81
2022/01/03 18:49:11;;;;;;;4.35;3.17;;;;;;;13.34;61.89;99013.55;1887136;104;25852;-88
2022/01/03 18:52:36;;;;;;;4.65;3.58;;;;;;;13.34;61.89;99013.55;1886731;104;25880;-82
2022/01/03 18:56:04;;;;;;;5.40;3.30;;;;;;;13.46;61.59;99043.95;1887007;104;25815;-85
2022/01/03 18:59:55;;;;;;;6.47;3.42;;;;;;;13.44;61.52;99040.51;1912628;101;26092;-84
2022/01/03 19:03:28;;;;;;;6.30;3.02;;;;;;;13.29;61.59;99014.46;1925753;101;25908;-82
2022/01/03 19:06:55;;;;;;;4.40;3.00;;;;;;;13.29;61.59;99014.46;1915032;101;25792;-83
2022/01/03 19:10:26;;;;;;;7.58;3.02;;;;;;;13.32;61.50;99007.45;1975311;96;25750;-87
2022/01/03 19:14:20;;;;;;;5.95;3.33;;;;;;;13.41;61.54;99023.52;2015900;98;25915;-88
2022/01/03 19:18:00;;;;;;;8.20;3.10;;;;;;;13.41;61.54;99023.52;1983762;99;25890;-88
2022/01/03 19:21:24;;;;;;;5.75;4.15;;;;;;;13.40;61.67;99016.55;2043378;96;26131;-85
2022/01/03 19:24:48;;;;;;;4.92;3.27;;;;;;;13.40;61.67;99016.55;2052702;96;25873;-84
2022/01/03 19:28:16;;;;;;;5.65;3.35;;;;;;;13.26;61.51;98989.63;2051389;96;25877;-87
2022/01/03 19:31:47;;;;;;;4.90;3.00;;;;;;;13.26;61.51;98989.63;2053519;95;26472;-86
2022/01/03 19:39:10;;;;;;;8.53;3.83;;;;;;;13.36;61.50;99014.38;2030265;96;25808;-89
2022/01/03 19:42:52;;;;;;;6.50;3.47;;;;;;;13.54;62.92;99026.44;1958430;97;26446;-84
2022/01/03 19:46:26;;;;;;;8.63;3.75;;;;;;;13.72;62.69;99007.04;1940643;100;25903;-83
2022/01/03 19:50:02;;;;;;;6.10;3.45;;;;;;;13.66;62.39;98996.63;1949149;100;25840;-89
2022/01/03 19:53:32;;;;;;;6.17;3.55;;;;;;;13.67;62.05;99021.95;1969469;98;25727;-86
2022/01/03 19:57:08;;;;;;;9.95;3.60;;;;;;;13.67;62.05;99021.95;1967596;99;25749;-86
2022/01/03 20:00:48;;;;;;;4.80;3.92;;;;;;;13.63;62.10;99008.44;2042486;94;26132;-89
2022/01/03 20:04:29;;;;;;;5.60;3.95;;;;;;;13.50;62.02;99005.11;2055471;94;25815;-85
2022/01/03 20:08:00;;;;;;;;;;;;;;;;;;;;;
2022/01/03 20:11:40;;;;;;;6.83;3.67;;;;;;;13.55;61.93;99029.48;2026273;96;25361;-89
2022/01/03 20:15:20;;;;;;;10.25;4.53;;;;;;;13.54;61.92;99023.83;2037358;95;25969;-91
2022/01/03 20:22:50;;;;;;;6.00;3.98;;;;;;;13.52;61.85;99028.20;1993426;97;25826;-88
2022/01/03 20:26:22;;;;;;;5.53;3.70;;;;;;;13.50;61.78;99029.98;1994644;97;25799;-84
2022/01/03 20:29:54;;;;;;;7.37;3.25;;;;;;;13.45;61.74;99022.16;1993347;97;26004;-89
2022/01/03 20:33:34;;;;;;;6.60;4.22;;;;;;;13.50;61.71;99027.78;1993834;96;26001;-84
2022/01/03 20:37:21;;;;;;;4.28;3.20;;;;;;;13.35;61.67;99000.02;1994525;97;26196;-85
2022/01/03 20:41:05;;;;;;;;;;;;;;;;;;;;;
2022/01/03 20:45:03;;;;;;;5.57;3.17;;;;;;;13.46;61.65;99016.05;1935311;101;25920;-89
2022/01/03 20:48:29;;;;;;;9.00;3.17;;;;;;;13.46;61.64;99026.53;1936192;102;25343;-87
2022/01/03 20:51:54;;;;;;;7.90;3.55;;;;;;;13.44;61.58;99033.52;1934248;100;25881;-90
2022/01/03 20:55:31;;;;;;;6.17;3.22;;;;;;;13.44;61.57;99033.52;1937776;100;26135;-84
2022/01/03 20:59:27;;;;;;;7.97;3.95;;;;;;;13.43;61.54;99024.34;1937392;100;25846;-88
2022/01/03 21:02:53;;;;;;;7.58;2.50;;;;;;;13.43;61.53;99034.82;1905813;102;25822;-87
2022/01/03 21:06:26;;;;;;;5.35;3.40;;;;;;;13.42;61.50;99025.23;1903990;102;26315;-83
2022/01/03 21:10:08;;;;;;;5.17;3.50;;;;;;;13.41;61.46;99027.00;1903674;102;25799;-89
2022/01/03 21:13:38;;;;;;;6.92;3.40;;;;;;;13.27;61.18;98997.48;1905287;102;26202;-85
2022/01/03 21:17:20;;;;;;;6.22;4.15;;;;;;;13.27;61.18;98997.48;1883720;101;25649;-87
2022/01/03 21:24:31;;;;;;;5.37;3.00;;;;;;;13.37;61.18;99019.20;1877334;103;25934;-86
2022/01/03 21:32:13;;;;;;;;;;;;;;;;;;;;;
2022/01/03 21:35:43;;;;;;;;;;;;;;;;;;;;;
2022/01/03 21:39:30;;;;;;;5.47;3.05;;;;;;;13.19;60.18;99016.25;1809224;107;25831;-85
2022/01/03 21:43:14;;;;;;;;;;;;;;;;;;;;;
2022/01/03 21:46:44;;;;;;;11.00;4.45;;;;;;;13.11;60.02;99009.79;1748908;111;26296;-87
2022/01/03 21:50:34;;;;;;;5.75;3.25;;;;;;;13.03;59.77;99001.56;1750590;111;25884;-87
2022/01/03 21:54:18;;;;;;;4.65;2.95;;;;;;;13.05;59.66;99008.53;1722427;113;26105;-85
2022/01/03 22:05:05;;;;;;;6.22;3.33;;;;;;;12.96;59.08;98997.72;1707578;113;26468;-88
2022/01/03 22:08:46;;;;;;;5.42;2.60;;;;;;;12.96;59.08;98997.72;1724048;113;25948;-92
2022/01/03 22:41:22;;;;;;;;;;;;;;;;;;;;;
2022/01/03 22:45:23;;;;;;;;;;;;;;;;;;;;;
2022/01/03 22:49:09;;;;;;;5.58;2.85;;;;;;;12.59;58.54;98970.09;1660174;116;25902;-87
2022/01/03 22:53:04;;;;;;;4.53;2.67;;;;;;;12.57;58.71;98958.80;1668740;114;26058;-93
2022/01/03 22:56:57;;;;;;;4.80;2.85;;;;;;;12.57;58.78;98955.73;1670384;117;25914;-85
2022/01/03 23:00:44;;;;;;;4.03;1.97;;;;;;;12.59;58.89;98954.41;1675466;115;26057;-90
2022/01/03 23:04:11;;;;;;;6.00;2.53;;;;;;;12.59;58.94;98953.99;1708460;114;26166;-87
2022/01/03 23:07:45;;;;;;;6.70;3.00;;;;;;;12.61;59.04;98958.75;1699388;114;26189;-88
2022/01/03 23:11:07;;;;;;;4.55;2.33;;;;;;;12.63;59.10;98952.22;1712446;115;25977;-88
2022/01/03 23:14:33;;;;;;;5.20;3.17;;;;;;;12.64;59.17;98951.33;1654098;118;25920;-85
2022/01/03 23:18:53;;;;;;;5.28;2.72;;;;;;;12.65;59.19;98953.92;1655101;115;25922;-90
2022/01/03 23:21:38;;;;;;;3.92;2.30;;;;;;;12.67;59.21;98949.56;1705275;115;25969;-88
2022/01/03 23:25:31;;;;;;;4.97;3.62;;;;;;;12.69;59.19;98949.53;1721765;109;26021;-87
2022/01/03 23:28:59;;;;;;;5.28;3.22;;;;;;;12.68;59.23;98946.06;1707766;112;25925;-89
2022/01/03 23:32:37;;;;;;;8.13;3.70;;;;;;;12.70;59.25;98935.61;1716971;113;26406;-89
2022/01/03 23:39:45;;;;;;;4.95;2.95;;;;;;;12.72;59.27;98928.19;1689162;115;26093;-88
2022/01/03 23:43:19;;;;;;;5.67;2.83;;;;;;;12.73;59.27;98929.05;1690745;115;25956;-88
2022/01/03 23:46:54;;;;;;;5.12;2.90;;;;;;;12.74;59.26;98931.63;1691526;115;25551;-87
2022/01/03 23:50:16;;;;;;;7.65;3.10;;;;;;;12.75;59.27;98931.19;1690214;115;25942;-87
2022/01/03 23:53:56;;;;;;;5.10;3.30;;;;;;;12.75;59.25;98925.95;1746504;110;26092;-86
2022/01/03 23:57:11;;;;;;;4.65;2.98;;;;;;;12.76;59.25;98929.88;1745299;111;25835;-87
